Terminal Aerodrome Forecast
Issued by NWS

Home | Current Version | Previous Version | Text Only | Print | Product List | Glossary On
Versions: 1 2 3 4 5 6 7 8 9 10 11 12 13
000
FTUS42 KFFC 030520
TAFRYY
TAF
KRYY 030520Z 0306/0406 00000KT P6SM FEW080 BKN200
     FM031500 32004KT P6SM SCT045 BKN200
     FM031800 31005KT P6SM BKN050 PROB30 0319/0323 -SHRA
     FM040000 00000KT P6SM SCT060 SCT150
      AMD NOT SKED TIL 031200=

USA.gov is the U.S. government's official web portal to all federal, state and local government web resources and services.